ADDS METAR Data INFO
IDs: Format: Raw Decoded Include TAF

Data at: 2302 UTC 16 Jan 2018

KCCY 162255Z AUTO 7.83333308KT 10SM OVC005 M15/M17 A3062 RMK AO2
KCCY 162235Z AUTO 30007KT 10SM BKN006 BKN009 M14/M17 A3062 RMK AO2
KCCY 162215Z AUTO 30007KT 10SM BKN007 M14/M17 A3062 RMK AO2
KCCY 162155Z AUTO 30006KT 10SM SCT007 M14/M17 A3061 RMK AO2
KCCY 162135Z AUTO 30007KT 10SM SCT007 SCT011 M14/M17 A3061 RMK AO2
KCCY 162115Z AUTO 29008KT 10SM BKN011 M14/M17 A3061 RMK AO2
KCCY 162055Z AUTO 30007KT 10SM OVC011 M14/M17 A3061 RMK AO2
KCCY 162035Z AUTO 33007KT 10SM OVC010 M14/M16 A3061 RMK AO2
KCCY 162015Z AUTO 33008KT 9SM OVC011 M14/M17 A3061 RMK AO2
KCCY 161955Z AUTO 32010KT 10SM OVC010 M15/M17 A3061 RMK AO2
KCCY 161935Z AUTO 33010KT 10SM OVC011 M15/M18 A3062 RMK AO2
KCCY 161915Z AUTO 33011KT 9SM OVC011 M15/M18 A3061 RMK AO2
KCCY 161855Z AUTO 33011KT 9SM OVC012 M15/M18 A3062 RMK AO2
KCCY 161835Z AUTO 32011KT 9SM OVC012 M15/M18 A3062 RMK AO2
KCCY 161815Z AUTO 32011KT 7SM OVC012 M15/M18 A3063 RMK AO2
KCCY 161755Z AUTO 32010G18KT 8SM OVC012 M16/M18 A3063 RMK AO2
KCCY 161735Z AUTO 32010G16KT 9SM OVC011 M16/M19 A3064 RMK AO2
KCCY 161715Z AUTO 33015KT 10SM SCT006 OVC010 M16/M19 A3064 RMK AO2
KCCY 161655Z AUTO 33012G19KT 8SM BKN005 OVC011 M16/M19 A3065 RMK AO2
KCCY 161635Z AUTO 33016KT 8SM OVC004 M16/M19 A3064 RMK AO2
KCCY 161615Z AUTO 33014G21KT 9SM OVC004 M17/M20 A3064 RMK AO2
KCCY 161555Z AUTO 33013G20KT 9SM BKN005 OVC011 M17/M20 A3064 RMK AO2
KCCY 161535Z AUTO 33013G18KT 5SM HZ FEW006 OVC011 M17/M20 A3063 RMK AO2
KCCY 161515Z AUTO 33015KT 5SM HZ OVC010 M17/M19 A3063 RMK AO2
KCCY 161455Z AUTO 33016KT 4SM -SN OVC007 M17/M19 A3063 RMK AO2
KCCY 161435Z AUTO 33014KT 4SM -SN OVC009 M17/M19 A3062 RMK AO2
KCCY 161415Z AUTO 33013KT 5SM HZ OVC009 M17/M20 A3061 RMK AO2
KCCY 161355Z AUTO 33012KT 6SM HZ OVC008 M18/M20 A3060 RMK AO2
KCCY 161335Z AUTO 33013KT 9SM OVC010 M18/M20 A3060 RMK AO2
KCCY 161315Z AUTO 32012G18KT 10SM OVC009 M18/M20 A3060 RMK AO2
KCCY 161255Z AUTO 33013KT 10SM BKN008 OVC012 M18/M20 A3059 RMK AO2
KCCY 161235Z AUTO 32014KT 10SM BKN007 OVC013 M18/M20 A3058 RMK AO2
KCCY 161215Z AUTO 33014KT 10SM BKN006 OVC032 M17/M20 A3058 RMK AO2
KCCY 161155Z AUTO 33016KT 6SM -SN BKN007 OVC031 M17/M20 A3057 RMK AO2
KCCY 161135Z AUTO 32014G20KT 10SM OVC007 M17/M20 A3056 RMK AO2
KCCY 161115Z AUTO 33013KT 10SM -SN OVC006 M18/M20 A3056 RMK AO2
KCCY 161055Z AUTO 33012KT 10SM -SN OVC007 M18/M21 A3056 RMK AO2
KCCY 161035Z AUTO 32011G17KT 10SM BKN007 OVC035 M18/M21 A3055 RMK AO2
KCCY 161015Z AUTO 32010KT 10SM OVC007 M19/M22 A3055 RMK AO2
KCCY 160955Z AUTO 33012KT 10SM BKN005 OVC009 M19/M22 A3055 RMK AO2
KCCY 160935Z AUTO 32013KT 10SM SCT007 BKN010 OVC033 M18/M21 A3054 RMK AO2
KCCY 160915Z AUTO 32015G20KT 10SM FEW007 SCT012 BKN021 M19/M21 A3054 RMK AO2
KCCY 160855Z AUTO 33014KT 10SM FEW007 BKN014 OVC021 M19/M22 A3053 RMK AO2
KCCY 160835Z AUTO 32015KT 5SM -SN BKN006 OVC013 M19/M22 A3053 RMK AO2
KCCY 160815Z AUTO 33016KT 4SM -SN OVC006 M18/M21 A3052 RMK AO2
KCCY 160755Z AUTO 33019KT 8SM -SN OVC007 M18/M21 A3052 RMK AO2
KCCY 160735Z AUTO 33015KT 9SM OVC007 M19/M22 A3051 RMK AO2
KCCY 160715Z AUTO 32015KT 7SM -SN BKN007 OVC014 M19/M22 A3051 RMK AO2
KCCY 160655Z AUTO 32011G19KT -SN BKN007 OVC015 M19/M22 A3051 RMK AO2
KCCY 160635Z AUTO 31012G19KT 10SM -SN BKN007 OVC017 M20/M23 A3051 RMK AO2
KCCY 160615Z AUTO 32013KT 10SM BKN006 OVC018 M20/M23 A3051 RMK AO2
KCCY 160555Z AUTO 31011G18KT 10SM OVC007 M20/M23 A3050 RMK AO2
KCCY 160535Z AUTO 31011G18KT 10SM -SN BKN008 OVC012 M20/M24 A3050 RMK AO2
KCCY 160515Z AUTO 31013KT 10SM -SN BKN007 OVC012 M21/M24 A3050 RMK AO2
KCCY 160455Z AUTO 31014KT 10SM OVC007 M20/M24 A3050 RMK AO2
KCCY 160435Z AUTO 31014G19KT 10SM OVC006 M20/M23 A3050 RMK AO2
KCCY 160415Z AUTO 31013KT 10SM OVC006 M20/M23 A3049 RMK AO2
KCCY 160355Z AUTO 32013KT 10SM BKN006 BKN023 OVC027 M20/M23 A3049 RMK AO2
KCCY 160335Z AUTO 31014KT 10SM SCT007 BKN013 OVC034 M20/M23 A3048 RMK AO2
KCCY 160315Z AUTO 31014KT 10SM FEW014 FEW019 OVC034 M20/M22 A3048 RMK AO2
KCCY 160255Z AUTO 31012KT 5SM -SN FEW009 SCT021 OVC035 M19/M22 A3048 RMK AO2
KCCY 160235Z AUTO 31015KT 6SM -SN SCT008 BKN021 OVC030 M19/M22 A3048 RMK AO2
KCCY 160215Z AUTO 31013G19KT 10SM -SN SCT009 BKN012 OVC029 M19/M22 A3047 RMK AO2
KCCY 160155Z AUTO 31013KT 9SM BKN009 BKN018 OVC026 M18/M21 A3047 RMK AO2
KCCY 160135Z AUTO 31017KT 10SM OVC028 M18/M21 A3046 RMK AO2
KCCY 160115Z AUTO 32016G24KT 10SM OVC029 M18/M21 A3046 RMK AO2
KCCY 160055Z AUTO 31017KT 10SM -SN SCT010 OVC028 M18/M21 A3045 RMK AO2
KCCY 160035Z AUTO 32016KT 10SM SCT011 OVC026 M18/M21 A3045 RMK AO2
KCCY 160015Z AUTO 32016G22KT 9SM -SN BKN012 OVC024 M18/M21 A3044 RMK AO2
KCCY 152355Z AUTO 32016KT 10SM BKN010 OVC014 M18/M21 A3043 RMK AO2
KCCY 152335Z AUTO 31015G23KT 10SM OVC010 M18/M21 A3043 RMK AO2
KCCY 152315Z AUTO 31017KT 7SM SCT006 OVC011 M18/M20 A3042 RMK AO2
KCCY 152255Z AUTO 31015G22KT 8SM OVC012 M17/M21 A3041 RMK AO2
KCCY 152235Z AUTO 31017KT 9SM FEW009 OVC014 M17/M20 A3041 RMK AO2
KCCY 152215Z AUTO 32019G24KT 7SM BKN012 OVC016 M17/M20 A3040 RMK AO2
KCCY 152155Z AUTO 32019G24KT 6SM HZ OVC012 M17/M20 A3039 RMK AO2
KCCY 152135Z AUTO 32018G26KT 7SM FEW009 BKN013 OVC036 M17/M20 A3038 RMK AO2
KCCY 152115Z AUTO 31022G28KT 7SM SCT012 BKN022 OVC065 M17/M20 A3036 RMK AO2
KCCY 152055Z AUTO 31019G26KT BKN013 BKN025 OVC035 M16/M20 A3035 RMK AO2
KCCY 152035Z AUTO 32021G27KT 5SM HZ BKN013 BKN024 OVC030 M16/M20 A3034 RMK AO2
KCCY 152015Z AUTO 31020G26KT 3SM HZ BKN012 OVC024 M16/M19 A3033 RMK AO2
KCCY 151955Z AUTO 32015G25KT 2SM -SN FEW013 OVC026 M16/M19 A3033 RMK AO2
KCCY 151935Z AUTO 32023G28KT 2 1/2SM -SN SCT010 BKN026 OVC032 M16/M20 A3033 RMK AO2
KCCY 151915Z AUTO 32022G28KT 3SM -SN FEW013 BKN025 OVC037 M16/M19 A3032 RMK AO2
KCCY 151855Z AUTO 32017G26KT 5SM HZ BKN025 BKN039 OVC075 M16/M20 A3032 RMK AO2
KCCY 151835Z AUTO 32019G29KT 3SM HZ OVC025 M16/M19 A3032 RMK AO2
KCCY 151815Z AUTO 31023KT 4SM HZ FEW014 OVC023 M16/M19 A3032 RMK AO2
KCCY 151755Z AUTO 31018G27KT 2SM -SN OVC023 M16/M19 A3032 RMK AO2
KCCY 151735Z AUTO 31020G28KT 2 1/2SM -SN SCT012 BKN020 OVC025 M16/M19 A3032 RMK AO2
KCCY 151715Z AUTO 32021G27KT 4SM -SN BKN011 OVC022 M16/M19 A3032 RMK AO2
KCCY 151655Z AUTO 32019G25KT 5SM HZ BKN012 BKN023 OVC029 M16/M19 A3031 RMK AO2
KCCY 151615Z AUTO 32023G29KT 5SM HZ FEW012 SCT028 BKN033 M16/M19 A3030 RMK AO2
KCCY 151555Z AUTO 32018KT 5SM HZ SCT011 BKN034 OVC046 M17/M19 A3030 RMK AO2
KCCY 151535Z AUTO 31020KT 4SM -SN FEW009 SCT012 OVC036 M16/M19 A3028 RMK AO2
KCCY 151515Z AUTO 31017G24KT 6SM -SN BKN011 OVC037 M16/M19 A3027 RMK AO2
KCCY 151455Z AUTO 31018KT 8SM BKN012 OVC036 M16/M19 A3026 RMK AO2
KCCY 151435Z AUTO 31016G22KT 9SM BKN011 OVC036 M16/M19 A3025 RMK AO2
KCCY 151415Z AUTO 31017G25KT 9SM BKN011 BKN031 OVC036 M16/M19 A3024 RMK AO2
KCCY 151355Z AUTO 32020KT 7SM SCT010 BKN013 OVC034 M16/M19 A3023 RMK AO2
KCCY 151335Z AUTO 31016G22KT 6SM HZ SCT010 BKN023 OVC028 M16/M19 A3023 RMK AO2
KCCY 151315Z AUTO 31015G24KT 6SM -SN FEW012 OVC022 M16/M18 A3022 RMK AO2
KCCY 151255Z AUTO 31019G26KT 5SM -SN BKN011 OVC023 M16/M18 A3022 RMK AO2
KCCY 151235Z AUTO 31014G25KT 3SM -SN BKN011 OVC022 M15/M17 A3021 RMK AO2
KCCY 151215Z AUTO 32018KT 5SM -SN BKN010 OVC013 M15/M17 A3019 RMK AO2
KCCY 151155Z AUTO 32020KT 8SM OVC010 M15/M17 A3018 RMK AO2
KCCY 151135Z AUTO 31017G25KT 7SM BKN009 OVC012 M15/M17 A3018 RMK AO2
KCCY 151115Z AUTO 31020G26KT 7SM OVC009 M15/M16 A3017 RMK AO2